Dalby, Iowa
Current Conditions -  °F | °C
As of 2:55 PM on Tuesday 27 Jan 2015 (Local Time) from KPDC Reporting Station
Overcast Overcast  
Wind Chill: 30°   Ceiling: 2100
Heat Index: 30°   Visibility: 10mi
Dew Point: 20°   Wind: 0mph
Humidity: 67%   Direction: NA
Pressure: 30.21"   Gusts: NA
Location:  43.2691°N, 91.2611°W
Report Text: KPDC 272055Z AUTO 00000KT 10SM OVC021 M01/M06 A3021 RMK AO2 P0001 60001 T10091064
Loading
Personal Weather Stations






























Interactive Weather Map New forecast layout! Learn more

10-Day Weather Forecast

Advertisements
Track Severe Weather on mobile